Time;durP1;ratioP1;P1;durP2;ratioP2;P2;SDS_P1;SDS_P2;PMS_P1;PMS_P2;Temp;Humidity;BMP_temperature;BMP_pressure;BME280_temperature;BME280_humidity;BME280_pressure;Samples;Min_cycle;Max_cycle;Signal;HPM_P1;HPM_P2
2023/08/06 00:00:37;;;;;;;6.85;6.15;;;14.50;53.60;;;;;;5001506;28;20042;-86
2023/08/06 00:03:04;;;;;;;9.07;7.00;;;;;;;;;;4984651;28;20052;-86
2023/08/06 00:05:30;;;;;;;9.55;6.68;;;;;;;;;;5001140;28;20046;-86
2023/08/06 00:07:56;;;;;;;7.63;6.85;;;;;;;;;;5001124;28;20050;-87
2023/08/06 00:10:22;;;;;;;11.85;7.13;;;;;;;;;;4985072;28;20049;-86
2023/08/06 00:12:48;;;;;;;8.85;7.38;;;;;;;;;;5000962;28;20049;-86
2023/08/06 00:15:14;;;;;;;9.43;7.05;;;;;;;;;;5000960;28;20490;-87
2023/08/06 00:17:41;;;;;;;11.23;7.35;;;;;;;;;;5001355;28;20041;-86
2023/08/06 00:20:07;;;;;;;10.68;6.95;;;;;;;;;;5000892;28;20099;-86
2023/08/06 00:22:35;;;;;;;10.27;6.88;;;14.50;61.20;;;;;;5000800;28;20057;-87
2023/08/06 00:25:01;;;;;;;11.15;7.18;;;;;;;;;;4984971;28;20061;-86
2023/08/06 00:27:27;;;;;;;10.05;6.55;;;;;;;;;;5001149;28;20487;-85
2023/08/06 00:29:53;;;;;;;9.40;6.70;;;;;;;;;;4984628;28;20045;-87
2023/08/06 00:32:20;;;;;;;9.70;6.85;;;;;;;;;;5000324;28;20049;-87
2023/08/06 00:34:46;;;;;;;7.70;6.70;;;;;;;;;;5000806;28;20045;-86
2023/08/06 00:37:12;;;;;;;11.70;7.70;;;;;;;;;;4984835;28;20131;-85
2023/08/06 00:39:38;;;;;;;11.90;7.05;;;;;;;;;;5016867;28;20132;-86
2023/08/06 00:42:04;;;;;;;9.50;8.05;;;;;;;;;;5000246;28;20095;-87
2023/08/06 00:44:30;;;;;;;11.38;7.18;;;;;;;;;;4984260;28;20573;-85
2023/08/06 00:46:56;;;;;;;11.52;8.20;;;;;;;;;;4984804;28;20038;-87
2023/08/06 00:49:23;;;;;;;10.60;7.70;;;;;;;;;;5001986;28;20051;-87
2023/08/06 00:51:49;;;;;;;7.78;6.97;;;;;;;;;;4987287;28;20049;-87
2023/08/06 00:54:15;;;;;;;11.07;7.18;;;;;;;;;;5003420;28;20414;-87
2023/08/06 00:56:42;;;;;;;9.32;7.53;;;;;;;;;;5002232;28;20057;-86
2023/08/06 00:59:09;;;;;;;10.98;6.90;;;;;;;;;;5001298;28;20048;-84
2023/08/06 01:01:35;;;;;;;7.35;6.65;;;;;;;;;;5000702;28;20041;-86
2023/08/06 01:04:01;;;;;;;9.57;6.78;;;;;;;;;;4984766;28;20063;-85
2023/08/06 01:06:38;;;;;;;11.50;7.00;;;;;;;;;;5000596;28;20124;-86
2023/08/06 01:09:31;;;;;;;7.85;6.45;;;14.40;65.90;;;;;;5000534;28;20048;-86
2023/08/06 01:12:23;;;;;;;7.82;6.93;;;14.50;55.20;;;;;;5016149;28;20131;-85
2023/08/06 01:14:49;;;;;;;8.43;6.53;;;;;;;;;;5016351;28;20041;-86
2023/08/06 01:17:15;;;;;;;8.45;6.82;;;;;;;;;;4999967;28;20045;-85
2023/08/06 01:19:41;;;;;;;10.25;6.78;;;;;;;;;;4984249;28;20041;-85
2023/08/06 01:22:07;;;;;;;8.13;6.57;;;;;;;;;;4983917;28;20049;-85
2023/08/06 01:24:33;;;;;;;9.65;7.03;;;;;;;;;;4999722;28;20057;-86
2023/08/06 01:27:38;;;;;;;7.75;6.95;;;14.50;69.10;;;;;;5000350;28;20049;-86
2023/08/06 01:30:13;;;;;;;9.88;8.05;;;14.60;67.70;;;;;;4951939;28;20081;-85
2023/08/06 01:32:43;;;;;;;8.32;6.53;;;;;;;;;;4999322;28;20049;-85
2023/08/06 01:35:11;;;;;;;9.00;7.75;;;14.30;61.50;;;;;;4999514;28;20049;-86
2023/08/06 01:37:37;;;;;;;9.80;7.07;;;;;;;;;;5015797;28;20068;-86
2023/08/06 01:40:09;;;;;;;8.35;6.13;;;14.30;65.60;;;;;;4983363;28;20474;-86
2023/08/06 01:42:35;;;;;;;13.18;6.85;;;;;;;;;;4999434;28;20041;-86
2023/08/06 01:45:01;;;;;;;8.85;7.13;;;;;;;;;;4983439;28;20052;-85
2023/08/06 01:47:28;;;;;;;9.57;7.70;;;;;;;;;;5015467;28;20037;-86
2023/08/06 01:49:54;;;;;;;9.80;7.45;;;;;;;;;;4983295;28;20049;-85
2023/08/06 01:52:20;;;;;;;11.95;7.55;;;;;;;;;;4998477;28;20067;-86
2023/08/06 01:54:46;;;;;;;10.18;7.68;;;;;;;;;;4983013;28;20160;-85
2023/08/06 01:57:12;;;;;;;12.32;7.85;;;;;;;;;;4983192;28;20045;-86
2023/08/06 01:59:38;;;;;;;10.40;7.47;;;;;;;;;;4999264;28;20047;-85
2023/08/06 02:02:04;;;;;;;14.45;7.88;;;;;;;;;;4998788;28;20041;-85
2023/08/06 02:04:30;;;;;;;12.73;8.07;;;;;;;;;;4998895;28;20406;-84
2023/08/06 02:06:56;;;;;;;9.25;7.38;;;;;;;;;;4982936;28;20056;-84
2023/08/06 02:09:22;;;;;;;9.32;7.53;;;;;;;;;;4982897;28;20543;-84
2023/08/06 02:11:48;;;;;;;10.23;8.20;;;;;;;;;;5015275;28;20060;-85
2023/08/06 02:14:14;;;;;;;10.30;8.02;;;;;;;;;;4982683;28;20041;-87
2023/08/06 02:16:40;;;;;;;15.25;8.13;;;;;;;;;;5015502;28;20198;-84
2023/08/06 02:19:06;;;;;;;11.90;7.80;;;;;;;;;;4982850;28;20037;-85
2023/08/06 02:21:33;;;;;;;10.57;8.00;;;;;;;;;;4982305;28;20095;-85
2023/08/06 02:23:59;;;;;;;13.45;7.95;;;;;;;;;;5014900;28;20045;-85
2023/08/06 02:26:26;;;;;;;8.73;7.43;;;;;;;;;;4998924;28;20107;-85
2023/08/06 02:28:52;;;;;;;8.93;7.40;;;;;;;;;;4998644;28;20045;-85
2023/08/06 02:31:18;;;;;;;8.73;7.50;;;;;;;;;;4982540;28;20103;-86
2023/08/06 02:33:44;;;;;;;10.90;7.55;;;;;;;;;;4982178;28;20052;-86
2023/08/06 02:36:10;;;;;;;9.65;7.97;;;;;;;;;;4982389;28;20088;-86
2023/08/06 02:38:36;;;;;;;9.02;8.02;;;;;;;;;;5014742;28;20052;-85
2023/08/06 02:41:05;;;;;;;13.18;8.45;;;;;;;;;;4998690;28;20052;-86
2023/08/06 02:43:32;;;;;;;12.80;8.60;;;;;;;;;;5014828;28;20076;-86
2023/08/06 02:45:58;;;;;;;12.75;8.90;;;;;;;;;;4998121;28;20049;-86
2023/08/06 02:48:24;;;;;;;11.25;8.10;;;;;;;;;;4998485;28;20077;-86
2023/08/06 02:50:50;;;;;;;12.25;9.02;;;;;;;;;;4982135;28;20079;-87
2023/08/06 02:53:16;;;;;;;12.18;8.88;;;;;;;;;;4982020;28;20037;-87
2023/08/06 02:55:47;;;;;;;12.32;9.07;;;;;;;;;;4998245;28;20041;-86
2023/08/06 02:58:14;;;;;;;12.02;8.32;;;;;;;;;;4998108;28;20050;-86
2023/08/06 03:00:40;;;;;;;10.68;8.45;;;;;;;;;;4997968;28;20045;-86
2023/08/06 03:03:06;;;;;;;10.90;8.57;;;;;;;;;;4997966;28;20124;-86
2023/08/06 03:05:32;;;;;;;11.40;9.05;;;;;;;;;;4997914;28;20041;-87
2023/08/06 03:07:58;;;;;;;13.77;9.25;;;;;;;;;;4998104;28;20049;-86
2023/08/06 03:10:24;;;;;;;10.73;8.38;;;;;;;;;;4981863;28;20038;-87
2023/08/06 03:12:50;;;;;;;12.93;9.20;;;;;;;;;;4998075;28;20136;-86
2023/08/06 03:15:16;;;;;;;11.23;9.13;;;;;;;;;;4998102;28;20045;-86
2023/08/06 03:17:44;;;;;;;13.77;9.75;;;;;;;;;;4998013;28;20049;-87
2023/08/06 03:20:10;;;;;;;11.93;9.25;;;;;;;;;;4998087;28;20116;-85
2023/08/06 03:22:36;;;;;;;10.77;8.98;;;;;;;;;;4997845;28;20072;-86
2023/08/06 03:25:02;;;;;;;16.00;8.82;;;;;;;;;;4998137;28;20045;-85
2023/08/06 03:27:28;;;;;;;11.80;8.38;;;;;;;;;;5014383;28;20472;-85
2023/08/06 03:29:54;;;;;;;12.20;9.57;;;;;;;;;;5014093;28;20037;-85
2023/08/06 03:32:20;;;;;;;13.48;8.85;;;;;;;;;;4997600;28;20045;-85
2023/08/06 03:34:46;;;;;;;14.23;8.50;;;;;;;;;;4997955;28;20037;-85
2023/08/06 03:37:13;;;;;;;10.10;7.78;;;;;;;;;;4997804;28;20525;-85
2023/08/06 03:39:39;;;;;;;11.40;9.23;;;;;;;;;;4997721;28;20409;-85
2023/08/06 03:42:05;;;;;;;12.15;9.27;;;;;;;;;;4997973;28;20407;-85
2023/08/06 03:44:31;;;;;;;10.57;8.77;;;;;;;;;;4981555;28;20049;-87
2023/08/06 03:46:57;;;;;;;10.95;8.70;;;;;;;;;;5013959;28;20494;-84
2023/08/06 03:49:23;;;;;;;10.23;9.02;;;;;;;;;;4998005;28;20050;-87
2023/08/06 03:51:49;;;;;;;10.73;7.85;;;;;;;;;;4981404;28;20083;-85
2023/08/06 03:54:15;;;;;;;13.98;9.05;;;;;;;;;;5014240;28;20123;-85
2023/08/06 03:56:41;;;;;;;14.50;9.68;;;;;;;;;;4997675;28;20046;-86
2023/08/06 03:59:07;;;;;;;14.85;9.48;;;;;;;;;;4997765;28;20069;-85
2023/08/06 04:01:33;;;;;;;12.18;9.05;;;;;;;;;;5013741;28;20506;-85
2023/08/06 04:03:59;;;;;;;13.75;9.35;;;;;;;;;;4981151;28;20038;-85
2023/08/06 04:06:26;;;;;;;13.30;9.32;;;;;;;;;;4997741;28;20046;-85
2023/08/06 04:08:52;;;;;;;11.38;8.82;;;;;;;;;;4997431;28;20148;-85
2023/08/06 04:11:18;;;;;;;12.90;9.70;;;;;;;;;;4981440;28;20040;-85
2023/08/06 04:13:44;;;;;;;11.38;8.15;;;;;;;;;;5013540;28;20050;-85
2023/08/06 04:16:10;;;;;;;13.35;9.25;;;;;;;;;;4982622;28;20044;-86
2023/08/06 04:18:36;;;;;;;11.50;9.18;;;;;;;;;;4984745;28;20553;-86
2023/08/06 04:21:05;;;;;;;12.18;9.15;;;;;;;;;;5000953;28;20052;-86
2023/08/06 04:23:31;;;;;;;12.85;9.73;;;;;;;;;;5016911;28;20057;-87
2023/08/06 04:25:58;;;;;;;12.52;8.80;;;;;;;;;;5000998;28;20060;-86
2023/08/06 04:28:24;;;;;;;10.95;8.55;;;;;;;;;;5000894;28;20045;-88
2023/08/06 04:30:50;;;;;;;13.00;8.70;;;;;;;;;;4984773;28;20132;-89
2023/08/06 04:33:16;;;;;;;10.45;9.25;;;;;;;;;;4984482;28;20429;-90
2023/08/06 04:35:42;;;;;;;17.75;8.52;;;;;;;;;;4985113;28;20144;-89
2023/08/06 04:38:08;;;;;;;10.27;8.23;;;;;;;;;;5000724;28;20045;-87
2023/08/06 04:40:37;;;;;;;10.32;8.98;;;;;;;;;;5000988;28;20045;-86
2023/08/06 04:43:03;;;;;;;10.98;8.27;;;;;;;;;;4984626;28;20055;-89
2023/08/06 04:45:29;;;;;;;9.27;8.32;;;;;;;;;;4984626;28;20093;-88
2023/08/06 04:47:56;;;;;;;10.70;8.30;;;;;;;;;;5000484;28;20099;-88
2023/08/06 04:50:22;;;;;;;13.05;9.18;;;;;;;;;;5003160;28;20037;-88
2023/08/06 04:52:48;;;;;;;9.98;8.45;;;;;;;;;;5016488;28;20132;-90
2023/08/06 04:55:14;;;;;;;10.63;8.25;;;;;;;;;;5017036;28;20041;-85
2023/08/06 04:57:40;;;;;;;12.18;8.85;;;;;;;;;;5033077;28;20114;-85
2023/08/06 05:00:06;;;;;;;11.23;8.32;;;;;;;;;;5016553;28;20132;-85
2023/08/06 05:02:34;;;;;;;11.25;8.88;;;;;;;;;;5032749;28;20046;-85
2023/08/06 05:05:00;;;;;;;9.80;7.55;;;;;;;;;;5016566;28;20046;-85
2023/08/06 05:07:26;;;;;;;10.70;8.18;;;;;;;;;;5032829;28;20060;-86
2023/08/06 05:09:53;;;;;;;12.00;8.93;;;;;;;;;;5000138;28;20045;-86
2023/08/06 05:12:19;;;;;;;10.30;8.70;;;;;;;;;;5000255;28;20398;-86
2023/08/06 05:14:45;;;;;;;13.23;9.05;;;;;;;;;;5016283;28;20041;-86
2023/08/06 05:17:11;;;;;;;10.90;8.40;;;;;;;;;;5016339;28;20499;-86
2023/08/06 05:19:37;;;;;;;11.25;8.27;;;;;;;;;;5000365;28;20039;-85
2023/08/06 05:22:04;;;;;;;14.15;8.88;;;;;;;;;;5033143;28;20064;-85
2023/08/06 05:24:30;;;;;;;13.30;8.90;;;;;;;;;;5003271;28;20087;-86
2023/08/06 05:26:56;;;;;;;12.05;8.77;;;;;;;;;;5018593;28;20092;-86
2023/08/06 05:29:22;;;;;;;10.35;8.55;;;;;;;;;;5037030;28;20543;-86
2023/08/06 05:31:48;;;;;;;11.18;8.90;;;;;;;;;;5019530;28;20536;-85
2023/08/06 05:34:14;;;;;;;10.23;8.20;;;;;;;;;;5019390;28;20502;-85
2023/08/06 05:36:40;;;;;;;9.93;8.50;;;;;;;;;;5019407;28;20135;-85
2023/08/06 05:39:06;;;;;;;10.40;8.00;;;;;;;;;;5035856;28;20049;-85
2023/08/06 05:41:32;;;;;;;10.60;9.07;;;;;;;;;;5003171;28;20041;-85
2023/08/06 05:43:58;;;;;;;11.88;8.40;;;;;;;;;;5035788;28;20137;-86
2023/08/06 05:46:24;;;;;;;10.85;8.32;;;;;;;;;;5019146;28;20049;-86
2023/08/06 05:48:51;;;;;;;9.23;8.02;;;;;;;;;;5018753;28;20037;-86
2023/08/06 05:51:17;;;;;;;9.10;8.10;;;;;;;;;;5019262;28;20064;-86
2023/08/06 05:53:43;;;;;;;12.27;8.15;;;;;;;;;;5018776;28;20048;-85
2023/08/06 05:56:09;;;;;;;13.25;8.02;;;;;;;;;;5002643;28;20048;-86
2023/08/06 05:58:35;;;;;;;9.52;7.55;;;;;;;;;;5035434;28;20408;-86
2023/08/06 06:01:01;;;;;;;8.80;7.85;;;;;;;;;;5002469;28;20083;-85
2023/08/06 06:03:27;;;;;;;8.70;7.78;;;;;;;;;;5034795;28;20045;-85
2023/08/06 06:05:54;;;;;;;9.45;7.43;;;;;;;;;;5018671;28;20136;-85
2023/08/06 06:08:20;;;;;;;11.40;7.20;;;;;;;;;;5035311;28;20135;-86
2023/08/06 06:10:46;;;;;;;9.20;6.95;;;;;;;;;;5019094;28;20481;-84
2023/08/06 06:13:12;;;;;;;13.50;8.07;;;;;;;;;;5018377;28;20067;-85
2023/08/06 06:15:38;;;;;;;9.20;7.70;;;;;;;;;;5001997;28;20056;-85
2023/08/06 06:18:04;;;;;;;11.50;7.68;;;;;;;;;;5001867;28;20048;-85
2023/08/06 06:20:32;;;;;;;10.00;7.40;;;;;;;;;;5018535;28;20063;-85
2023/08/06 06:22:58;;;;;;;9.50;8.43;;;;;;;;;;5034241;28;20061;-85
2023/08/06 06:25:25;;;;;;;9.65;7.88;;;;;;;;;;5034987;28;20417;-85
2023/08/06 06:27:51;;;;;;;9.13;8.02;;;;;;;;;;5002342;28;20045;-86
2023/08/06 06:30:17;;;;;;;10.50;7.97;;;;;;;;;;5034943;28;20091;-86
2023/08/06 06:32:43;;;;;;;9.48;7.75;;;;;;;;;;5017858;28;20045;-86
2023/08/06 06:35:09;;;;;;;8.73;6.93;;;;;;;;;;5018107;28;20048;-86
2023/08/06 06:37:35;;;;;;;12.95;8.43;;;;;;;;;;5018157;28;20128;-87
2023/08/06 06:40:01;;;;;;;10.25;8.48;;;;;;;;;;5018031;28;20041;-87
2023/08/06 06:42:27;;;;;;;9.70;7.78;;;;;;;;;;5017987;28;20076;-87
2023/08/06 06:44:53;;;;;;;9.40;7.78;;;;;;;;;;5017839;28;20049;-87
2023/08/06 06:47:19;;;;;;;15.63;8.50;;;;;;;;;;5001484;28;20044;-87
2023/08/06 06:49:45;;;;;;;9.50;7.53;;;;;;;;;;5001434;28;20410;-87
2023/08/06 06:52:12;;;;;;;10.02;8.77;;;;;;;;;;5017890;28;20547;-87
2023/08/06 06:54:38;;;;;;;14.35;9.07;;;;;;;;;;5017830;28;20044;-87
2023/08/06 06:57:04;;;;;;;12.65;8.10;;;;;;;;;;5017816;28;20045;-85
2023/08/06 06:59:30;;;;;;;9.32;7.78;;;;;;;;;;5018578;28;20134;-86
2023/08/06 07:01:56;;;;;;;10.88;7.63;;;;;;;;;;5014119;28;20050;-86
2023/08/06 07:04:22;;;;;;;9.73;8.00;;;;;;;;;;5012561;28;20053;-86
2023/08/06 07:06:48;;;;;;;9.65;8.65;;;;;;;;;;5012359;28;20084;-85
2023/08/06 07:09:14;;;;;;;10.13;8.10;;;;;;;;;;5011056;28;20517;-87
2023/08/06 07:11:43;;;;;;;11.95;8.55;;;;;;;;;;5011133;28;20057;-85
2023/08/06 07:14:09;;;;;;;9.82;8.10;;;;;;;;;;5012347;28;20050;-84
2023/08/06 07:16:35;;;;;;;8.48;7.43;;;;;;;;;;5011561;28;20046;-87
2023/08/06 07:19:01;;;;;;;8.73;7.75;;;;;;;;;;5011137;28;20129;-86
2023/08/06 07:21:27;;;;;;;9.60;7.90;;;16.00;83.00;;;;;;5010823;28;20041;-88
2023/08/06 07:23:54;;;;;;;9.52;7.38;;;;;;;;;;5010701;28;20053;-87
2023/08/06 07:26:23;;;;;;;10.82;8.13;;;;;;;;;;5010654;28;20622;-85
2023/08/06 07:28:49;;;;;;;9.38;7.45;;;;;;;;;;5010628;28;20135;-86
2023/08/06 07:31:15;;;;;;;9.68;7.60;;;;;;;;;;5010741;28;20084;-88
2023/08/06 07:33:41;;;;;;;11.80;7.43;;;;;;;;;;5010422;28;20046;-85
2023/08/06 07:36:08;;;;;;;10.00;6.85;;;;;;;;;;4978404;28;20046;-85
2023/08/06 07:38:34;;;;;;;8.13;6.50;;;16.60;81.90;;;;;;4994668;28;20577;-87
2023/08/06 07:41:02;;;;;;;10.27;6.90;;;;;;;;;;4978271;28;20046;-85
2023/08/06 07:43:28;;;;;;;6.78;6.05;;;;;;;;;;5010789;28;20442;-85
2023/08/06 07:45:54;;;;;;;8.10;6.22;;;;;;;;;;4994677;28;20052;-87
2023/08/06 07:48:20;;;;;;;8.20;7.13;;;;;;;;;;4978379;28;20084;-86
2023/08/06 07:50:50;;;;;;;6.45;5.68;;;;;;;;;;5011378;28;20049;-86
2023/08/06 07:53:16;;;;;;;10.65;6.88;;;;;;;;;;4982745;28;20189;-84
2023/08/06 07:55:42;;;;;;;6.53;5.65;;;;;;;;;;4981701;28;20038;-86
2023/08/06 07:58:08;;;;;;;6.78;5.82;;;;;;;;;;4998426;28;20054;-85
2023/08/06 08:00:34;;;;;;;9.90;6.80;;;;;;;;;;4982244;28;20072;-87
2023/08/06 08:03:00;;;;;;;6.88;6.22;;;;;;;;;;4997290;28;20184;-86
2023/08/06 08:05:26;;;;;;;6.78;6.18;;;;;;;;;;4997887;28;20049;-86
2023/08/06 08:07:52;;;;;;;7.45;5.72;;;;;;;;;;4981724;28;20530;-86
2023/08/06 08:10:18;;;;;;;6.43;5.22;;;;;;;;;;4997639;28;20053;-85
2023/08/06 08:12:47;;;;;;;7.10;5.30;;;;;;;;;;4997818;28;20046;-86
2023/08/06 08:15:13;;;;;;;7.00;6.30;;;;;;;;;;4997933;28;20053;-84
2023/08/06 08:17:39;;;;;;;6.78;5.88;;;;;;;;;;5013939;28;20506;-86
2023/08/06 08:20:06;;;;;;;5.75;5.20;;;17.70;72.20;;;;;;4997607;28;20446;-86
2023/08/06 08:22:32;;;;;;;7.90;6.13;;;;;;;;;;4999835;28;20088;-87
2023/08/06 08:24:58;;;;;;;7.53;4.30;;;;;;;;;;5000760;28;20527;-86
2023/08/06 08:27:24;;;;;;;5.45;4.75;;;;;;;;;;5017399;28;20041;-86
2023/08/06 08:29:50;;;;;;;6.82;4.70;;;;;;;;;;5017138;28;20056;-87
2023/08/06 08:32:16;;;;;;;5.88;4.05;;;;;;;;;;4984243;28;20426;-86
2023/08/06 08:34:44;;;;;;;3.97;3.58;;;;;;;;;;4984628;28;20095;-85
2023/08/06 08:37:10;;;;;;;5.50;4.68;;;;;;;;;;5016997;28;20046;-87
2023/08/06 08:39:36;;;;;;;10.48;4.40;;;;;;;;;;5017248;28;20387;-86
2023/08/06 08:42:03;;;;;;;5.05;4.03;;;;;;;;;;5016769;28;20116;-86
2023/08/06 08:44:31;;;;;;;5.32;4.00;;;18.50;10.70;;;;;;5000620;28;20049;-85
2023/08/06 08:46:58;;;;;;;4.15;3.58;;;;;;;;;;5000459;28;20045;-86
2023/08/06 08:49:24;;;;;;;6.78;4.10;;;;;;;;;;5000712;28;20445;-86
2023/08/06 08:51:52;;;;;;;4.45;3.90;;;18.70;1.00;;;;;;5000246;28;20128;-85
2023/08/06 08:54:19;;;;;;;4.68;4.28;;;18.70;1.00;;;;;;5016683;28;20111;-85
2023/08/06 08:56:46;;;;;;;3.58;3.25;;;;;;;;;;4968538;28;20073;-84
2023/08/06 08:59:12;;;;;;;4.32;3.60;;;;;;;;;;5000184;28;20046;-84
2023/08/06 09:01:40;;;;;;;6.15;3.60;;;19.00;1.00;;;;;;4983891;28;20037;-86
2023/08/06 09:04:06;;;;;;;5.50;3.90;;;18.80;1.00;;;;;;5000282;28;20124;-85
2023/08/06 09:06:36;;;;;;;4.03;3.65;;;18.70;1.00;;;;;;4984197;28;20489;-84
2023/08/06 09:09:13;;;;;;;4.72;3.55;;;18.90;1.00;;;;;;4999910;28;20526;-84
2023/08/06 09:11:45;;;;;;;4.07;3.78;;;19.00;1.00;;;;;;5016226;28;20041;-83
2023/08/06 09:14:12;;;;;;;3.53;3.22;;;19.00;1.00;;;;;;5000090;28;20056;-85
2023/08/06 09:16:38;;;;;;;4.65;3.63;;;;;;;;;;4999831;28;20037;-85
2023/08/06 09:19:12;;;;;;;3.75;3.42;;;18.80;1.00;;;;;;5016180;28;20199;-83
2023/08/06 09:21:41;;;;;;;5.47;3.75;;;19.00;1.00;;;;;;5000061;28;20533;-83
2023/08/06 09:24:11;;;;;;;5.88;3.80;;;19.10;1.00;;;;;;5012506;28;20054;-84
2023/08/06 09:26:38;;;;;;;2.55;2.35;;;19.20;1.00;;;;;;5012664;28;20097;-85
2023/08/06 09:29:08;;;;;;;3.60;2.58;;;19.30;1.00;;;;;;4980270;28;20041;-85
2023/08/06 09:31:53;;;;;;;2.90;2.47;;;19.20;1.00;;;;;;4980210;28;20056;-85
2023/08/06 09:34:21;;;;;;;1.95;1.80;;;19.30;1.00;;;;;;4995939;28;20054;-85
2023/08/06 09:36:52;;;;;;;2.33;1.80;;;19.20;1.00;;;;;;4980395;28;20112;-85
2023/08/06 09:39:19;;;;;;;2.03;1.83;;;19.30;1.00;;;;;;4996105;28;20053;-85
2023/08/06 09:41:46;;;;;;;2.83;2.00;;;;;;;;;;4980024;28;20084;-84
2023/08/06 09:44:16;;;;;;;6.70;2.08;;;19.50;1.00;;;;;;4980174;28;20045;-85
2023/08/06 09:46:43;;;;;;;2.40;2.20;;;;;;;;;;4996107;28;20042;-85
2023/08/06 09:49:10;;;;;;;5.57;3.05;;;;;;;;;;4996577;28;20088;-82
2023/08/06 09:51:39;;;;;;;3.75;2.80;;;19.50;1.00;;;;;;4996284;28;20240;-85
2023/08/06 09:54:07;;;;;;;3.88;3.33;;;19.40;1.00;;;;;;4995908;28;20049;-85
2023/08/06 09:56:37;;;;;;;3.50;3.20;;;19.40;1.00;;;;;;4995768;28;20046;-85
2023/08/06 09:59:08;;;;;;;4.93;3.20;;;19.70;1.00;;;;;;5012384;28;20045;-85
2023/08/06 10:01:35;;;;;;;4.47;2.88;;;19.70;1.00;;;;;;4995622;28;20499;-85
2023/08/06 10:04:03;;;;;;;2.80;2.47;;;19.80;1.00;;;;;;5011963;28;20046;-85
2023/08/06 10:06:29;;;;;;;3.42;2.60;;;;;;;;;;4995668;28;20065;-85
2023/08/06 10:08:55;;;;;;;4.72;3.40;;;;;;;;;;4995431;28;20089;-85
2023/08/06 10:11:27;;;;;;;5.40;3.08;;;19.80;1.00;;;;;;5011828;28;20495;-85
2023/08/06 10:14:03;;;;;;;2.80;2.58;;;19.90;1.00;;;;;;4995787;28;20050;-83
2023/08/06 10:16:29;;;;;;;2.47;2.08;;;;;;;;;;4995734;28;20513;-83
2023/08/06 10:18:55;;;;;;;4.03;2.55;;;;;;;;;;5013324;28;20548;-90
2023/08/06 10:21:23;;;;;;;2.58;2.22;;;20.20;1.00;;;;;;4997089;28;20045;-88
2023/08/06 10:23:54;;;;;;;2.80;2.60;;;20.00;1.00;;;;;;4996075;28;20469;-88
2023/08/06 10:26:20;;;;;;;2.67;2.05;;;20.10;1.00;;;;;;4980221;28;20108;-89
2023/08/06 10:28:46;;;;;;;2.30;2.10;;;;;;;;;;4980040;28;20049;-89
2023/08/06 10:31:12;;;;;;;3.47;2.50;;;;;;;;;;5011854;28;20045;-87
2023/08/06 10:33:48;;;;;;;2.40;2.13;;;20.10;1.00;;;;;;4995291;28;20046;-89
2023/08/06 10:36:14;;;;;;;2.20;1.90;;;20.20;1.00;;;;;;4979487;28;20483;-91
2023/08/06 10:38:48;;;;;;;3.13;2.17;;;20.20;1.00;;;;;;4995654;28;20498;-88
2023/08/06 10:41:29;;;;;;;2.60;2.17;;;20.20;1.00;;;;;;5011733;28;20486;-85
2023/08/06 10:44:08;;;;;;;3.88;2.00;;;20.50;1.00;;;;;;5011679;28;20049;-84
2023/08/06 10:46:34;;;;;;;1.75;1.60;;;;;;;;;;5011312;28;20447;-84
2023/08/06 10:49:01;;;;;;;2.22;1.98;;;20.60;1.00;;;;;;4994737;28;20040;-86
2023/08/06 10:51:27;;;;;;;2.65;1.85;;;;;;;;;;4979110;28;20060;-86
2023/08/06 10:53:53;;;;;;;4.18;2.45;;;20.70;1.00;;;;;;5011257;28;20533;-85
2023/08/06 10:56:25;;;;;;;2.40;2.20;;;20.90;1.00;;;;;;5011413;28;20049;-84
2023/08/06 10:58:56;;;;;;;4.38;2.17;;;20.60;1.00;;;;;;4995107;28;20491;-85
2023/08/06 11:01:22;;;;;;;1.92;1.80;;;;;;;;;;5011371;28;20045;-83
2023/08/06 11:03:50;;;;;;;2.85;1.92;;;;;;;;;;5010866;28;20495;-86
2023/08/06 11:06:19;;;;;;;2.38;2.13;;;20.50;1.00;;;;;;4978951;28;20046;-85
2023/08/06 11:08:53;;;;;;;2.72;1.55;;;20.50;1.00;;;;;;4962881;28;20092;-86
2023/08/06 11:11:20;;;;;;;2.00;1.70;;;20.70;1.00;;;;;;4995224;28;20054;-85
2023/08/06 11:13:48;;;;;;;3.72;1.88;;;20.80;1.00;;;;;;5011000;28;20085;-85
2023/08/06 11:16:18;;;;;;;3.13;2.03;;;20.70;1.00;;;;;;4994552;28;20048;-83
2023/08/06 11:18:44;;;;;;;2.17;1.98;;;;;;;;;;4978112;28;20073;-83
2023/08/06 11:21:13;;;;;;;2.10;1.90;;;;;;;;;;5010697;28;20046;-83
2023/08/06 11:23:40;;;;;;;2.25;1.95;;;20.90;1.00;;;;;;5010460;28;20057;-84
2023/08/06 11:26:07;;;;;;;2.90;1.95;;;;;;;;;;4997913;28;20038;-84
2023/08/06 11:28:33;;;;;;;2.80;2.13;;;;;;;;;;4998388;28;20049;-82
2023/08/06 11:31:02;;;;;;;2.20;1.90;;;;;;;;;;4982472;28;20038;-82
2023/08/06 11:33:28;;;;;;;2.30;2.10;;;21.10;1.00;;;;;;4998851;28;20553;-82
2023/08/06 11:35:56;;;;;;;1.85;1.67;;;21.10;1.00;;;;;;5014737;28;20415;-82
2023/08/06 11:38:22;;;;;;;4.65;1.90;;;;;;;;;;4998954;28;20174;-83
2023/08/06 11:40:48;;;;;;;4.38;2.10;;;21.10;1.00;;;;;;4982204;28;20088;-83
2023/08/06 11:43:15;;;;;;;2.17;1.92;;;20.90;1.00;;;;;;4981912;28;20708;-83
2023/08/06 11:45:41;;;;;;;3.50;1.98;;;21.00;1.00;;;;;;4998740;28;20426;-84
2023/08/06 11:48:10;;;;;;;2.30;2.10;;;21.10;1.00;;;;;;4998229;28;20506;-83
2023/08/06 11:50:39;;;;;;;2.55;2.10;;;20.90;1.00;;;;;;5014622;28;20730;-84
2023/08/06 11:53:05;;;;;;;2.78;2.00;;;;;;;;;;5015967;28;20049;-84
2023/08/06 11:55:31;;;;;;;4.82;2.08;;;21.00;1.00;;;;;;4998065;28;20527;-81
2023/08/06 11:57:57;;;;;;;4.10;2.30;;;20.70;1.00;;;;;;5014796;28;20049;-83
2023/08/06 12:00:24;;;;;;;4.57;1.73;;;21.00;1.00;;;;;;4998023;28;20057;-84
2023/08/06 12:02:52;;;;;;;2.38;2.15;;;;;;;;;;5015674;28;20042;-84
2023/08/06 12:05:25;;;;;;;2.47;2.20;;;20.90;1.00;;;;;;5022116;28;20101;-85
2023/08/06 12:07:52;;;;;;;;;;;20.90;1.00;;;;;;5023466;28;20042;-87
2023/08/06 12:10:22;;;;;;;4.07;2.35;;;20.80;1.00;;;;;;5005265;28;19940;-91
2023/08/06 12:12:48;;;;;;;2.45;2.25;;;;;;;;;;5014984;28;20045;-91
2023/08/06 12:15:14;;;;;;;2.35;2.10;;;;;;;;;;5014905;28;20487;-90
2023/08/06 12:17:40;;;;;;;3.70;1.90;;;;;;;;;;4998054;28;20134;-92
2023/08/06 12:20:07;;;;;;;2.42;2.15;;;20.70;1.00;;;;;;5014561;28;20264;-92
2023/08/06 12:22:38;;;;;;;3.38;2.00;;;20.60;1.00;;;;;;4984604;28;20053;-88
2023/08/06 12:25:12;;;;;;;2.20;2.00;;;20.90;1.00;;;;;;5001450;28;20037;-88
2023/08/06 12:27:40;;;;;;;2.20;1.92;;;20.90;1.00;;;;;;5001213;28;20053;-87
2023/08/06 12:30:06;;;;;;;3.55;2.13;;;21.10;1.00;;;;;;5000989;28;20118;-87
2023/08/06 12:32:33;;;;;;;2.15;1.90;;;20.90;1.00;;;;;;5001358;28;20387;-88
2023/08/06 12:35:00;;;;;;;2.15;1.95;;;;;;;;;;5017812;28;20076;-90
2023/08/06 12:37:27;;;;;;;3.85;2.22;;;;;;;;;;5016872;28;20490;-89
2023/08/06 12:39:53;;;;;;;3.53;1.83;;;;;;;;;;5001104;28;20046;-85
2023/08/06 12:42:19;;;;;;;4.80;2.30;;;;;;;;;;5017247;28;20375;-87
2023/08/06 12:44:45;;;;;;;2.47;2.28;;;21.10;1.00;;;;;;4984852;28;20045;-86
2023/08/06 12:47:10;;;;;;;3.78;1.90;;;21.20;1.00;;;;;;5001200;28;20041;-84
2023/08/06 12:49:36;;;;;;;3.30;2.20;;;;;;;;;;5017077;28;20616;-86
2023/08/06 12:52:06;;;;;;;3.15;1.98;;;21.30;1.00;;;;;;4984323;28;20043;-84
2023/08/06 12:54:36;;;;;;;1.95;1.83;;;;;;;;;;5001099;28;20502;-84
2023/08/06 12:57:03;;;;;;;2.30;2.10;;;21.40;1.00;;;;;;5000989;28;20509;-85
2023/08/06 12:59:29;;;;;;;3.00;1.90;;;21.30;1.00;;;;;;4984656;28;20050;-85
2023/08/06 13:01:55;;;;;;;3.03;1.80;;;;;;;;;;4984717;28;20045;-92
2023/08/06 13:04:21;;;;;;;2.53;2.17;;;21.40;1.00;;;;;;5000474;28;20072;-92
2023/08/06 13:06:46;;;;;;;2.05;1.83;;;21.60;1.00;;;;;;4984741;28;20394;-84
2023/08/06 13:09:13;;;;;;;2.35;2.15;;;21.20;1.00;;;;;;5016824;28;20478;-89
2023/08/06 13:11:40;;;;;;;2.00;1.80;;;21.30;1.00;;;;;;5016933;28;20045;-90
2023/08/06 13:14:07;;;;;;;2.55;1.85;;;21.40;1.00;;;;;;5000380;28;20080;-90
2023/08/06 13:16:34;;;;;;;2.30;1.95;;;21.60;1.00;;;;;;5000145;28;20049;-88
2023/08/06 13:18:59;;;;;;;4.63;1.92;;;21.70;1.00;;;;;;5000309;28;20053;-86
2023/08/06 13:21:41;;;;;;;2.13;1.92;;;21.50;1.00;;;;;;4984122;28;20048;-86
2023/08/06 13:24:07;;;;;;;2.25;1.80;;;21.60;1.00;;;;;;4999674;28;20054;-84
2023/08/06 13:26:33;;;;;;;2.15;1.88;;;21.50;1.00;;;;;;5016240;28;20058;-84
2023/08/06 13:28:59;;;;;;;3.67;2.60;;;21.70;1.00;;;;;;4999753;28;20050;-84
2023/08/06 13:31:26;;;;;;;3.03;2.50;;;21.40;1.00;;;;;;4999559;28;20041;-84
2023/08/06 13:33:55;;;;;;;3.15;1.77;;;;;;;;;;5015935;28;20383;-84
2023/08/06 13:36:21;;;;;;;2.15;1.95;;;21.70;1.00;;;;;;4999564;28;20045;-83
2023/08/06 13:38:47;;;;;;;5.13;2.20;;;21.70;1.00;;;;;;5015978;28;20053;-82
2023/08/06 13:41:12;;;;;;;1.77;1.67;;;21.80;1.00;;;;;;4999551;28;20073;-82
2023/08/06 13:43:39;;;;;;;1.92;1.83;;;21.80;1.00;;;;;;4999339;28;20502;-84
2023/08/06 13:46:05;;;;;;;1.98;1.80;;;21.60;1.00;;;;;;4999192;28;20046;-84
2023/08/06 13:48:30;;;;;;;2.03;1.85;;;21.80;1.00;;;;;;4982437;28;20076;-84
2023/08/06 13:50:56;;;;;;;2.15;1.75;;;22.00;1.00;;;;;;5015585;28;20486;-82
2023/08/06 13:53:22;;;;;;;1.77;1.67;;;21.90;1.00;;;;;;5015664;28;20037;-84
2023/08/06 13:55:47;;;;;;;2.15;1.60;;;21.80;1.00;;;;;;5015639;28;20049;-83
2023/08/06 13:58:13;;;;;;;3.10;1.55;;;22.10;1.00;;;;;;5015782;28;20038;-83
2023/08/06 14:00:39;;;;;;;2.85;2.00;;;21.90;1.00;;;;;;4999322;28;20540;-83
2023/08/06 14:03:05;;;;;;;2.20;2.03;;;21.80;1.00;;;;;;4999103;28;20045;-84